sensor_id;sensor_type;location;lat;lon;timestamp;P1;durP1;ratioP1;P2;durP2;ratioP2
25079;SDS011;13071;48.868;9.996;2022-08-01T00:01:24;2.58;;;2.10;;
25079;SDS011;13071;48.868;9.996;2022-08-01T00:03:51;2.33;;;2.10;;
25079;SDS011;13071;48.868;9.996;2022-08-01T00:06:18;4.90;;;2.65;;
25079;SDS011;13071;48.868;9.996;2022-08-01T00:08:44;2.42;;;2.22;;
25079;SDS011;13071;48.868;9.996;2022-08-01T00:11:11;2.40;;;2.20;;
25079;SDS011;13071;48.868;9.996;2022-08-01T00:13:40;2.45;;;2.25;;
25079;SDS011;13071;48.868;9.996;2022-08-01T00:16:06;2.17;;;2.05;;
25079;SDS011;13071;48.868;9.996;2022-08-01T00:18:33;2.85;;;2.42;;
25079;SDS011;13071;48.868;9.996;2022-08-01T00:21:00;2.65;;;2.20;;
25079;SDS011;13071;48.868;9.996;2022-08-01T00:23:27;2.47;;;2.05;;
25079;SDS011;13071;48.868;9.996;2022-08-01T00:25:54;2.95;;;2.20;;
25079;SDS011;13071;48.868;9.996;2022-08-01T00:28:20;2.20;;;2.10;;
25079;SDS011;13071;48.868;9.996;2022-08-01T00:30:48;3.55;;;2.60;;
25079;SDS011;13071;48.868;9.996;2022-08-01T00:33:15;4.43;;;2.20;;
25079;SDS011;13071;48.868;9.996;2022-08-01T00:35:41;2.60;;;2.40;;
25079;SDS011;13071;48.868;9.996;2022-08-01T00:38:08;2.58;;;2.28;;
25079;SDS011;13071;48.868;9.996;2022-08-01T00:40:35;5.10;;;2.70;;
25079;SDS011;13071;48.868;9.996;2022-08-01T00:43:02;3.38;;;2.60;;
25079;SDS011;13071;48.868;9.996;2022-08-01T00:45:29;3.50;;;2.42;;
25079;SDS011;13071;48.868;9.996;2022-08-01T00:47:57;2.85;;;2.65;;
25079;SDS011;13071;48.868;9.996;2022-08-01T00:50:23;3.03;;;2.50;;
25079;SDS011;13071;48.868;9.996;2022-08-01T00:52:50;2.47;;;2.28;;
25079;SDS011;13071;48.868;9.996;2022-08-01T00:55:17;4.00;;;2.25;;
25079;SDS011;13071;48.868;9.996;2022-08-01T00:57:45;2.40;;;2.20;;
25079;SDS011;13071;48.868;9.996;2022-08-01T01:00:13;2.67;;;2.45;;
25079;SDS011;13071;48.868;9.996;2022-08-01T01:02:40;3.38;;;2.63;;
25079;SDS011;13071;48.868;9.996;2022-08-01T01:05:08;2.95;;;2.35;;
25079;SDS011;13071;48.868;9.996;2022-08-01T01:07:38;4.18;;;2.22;;
25079;SDS011;13071;48.868;9.996;2022-08-01T01:10:12;2.83;;;2.50;;
25079;SDS011;13071;48.868;9.996;2022-08-01T01:12:44;2.67;;;2.47;;
25079;SDS011;13071;48.868;9.996;2022-08-01T01:15:17;5.65;;;2.60;;
25079;SDS011;13071;48.868;9.996;2022-08-01T01:17:46;2.42;;;2.22;;
25079;SDS011;13071;48.868;9.996;2022-08-01T01:20:20;2.45;;;2.15;;
25079;SDS011;13071;48.868;9.996;2022-08-01T01:23:00;4.28;;;2.80;;
25079;SDS011;13071;48.868;9.996;2022-08-01T01:25:51;3.03;;;2.30;;
25079;SDS011;13071;48.868;9.996;2022-08-01T01:28:33;3.00;;;2.40;;
25079;SDS011;13071;48.868;9.996;2022-08-01T01:31:08;2.72;;;2.53;;
25079;SDS011;13071;48.868;9.996;2022-08-01T01:33:40;3.30;;;2.90;;
25079;SDS011;13071;48.868;9.996;2022-08-01T01:36:08;2.92;;;2.72;;
25079;SDS011;13071;48.868;9.996;2022-08-01T01:38:39;4.25;;;3.17;;
25079;SDS011;13071;48.868;9.996;2022-08-01T01:41:08;3.08;;;2.75;;
25079;SDS011;13071;48.868;9.996;2022-08-01T01:43:37;3.28;;;2.50;;
25079;SDS011;13071;48.868;9.996;2022-08-01T01:46:06;2.92;;;2.60;;
25079;SDS011;13071;48.868;9.996;2022-08-01T01:48:36;2.58;;;2.38;;
25079;SDS011;13071;48.868;9.996;2022-08-01T01:51:04;2.78;;;2.50;;
25079;SDS011;13071;48.868;9.996;2022-08-01T01:53:32;2.63;;;2.40;;
25079;SDS011;13071;48.868;9.996;2022-08-01T01:56:00;3.78;;;2.92;;
25079;SDS011;13071;48.868;9.996;2022-08-01T01:58:30;3.10;;;2.80;;
25079;SDS011;13071;48.868;9.996;2022-08-01T02:00:59;7.75;;;2.90;;
25079;SDS011;13071;48.868;9.996;2022-08-01T02:03:28;4.07;;;3.13;;
25079;SDS011;13071;48.868;9.996;2022-08-01T02:05:56;4.85;;;2.45;;
25079;SDS011;13071;48.868;9.996;2022-08-01T02:08:25;3.45;;;2.92;;
25079;SDS011;13071;48.868;9.996;2022-08-01T02:10:53;4.60;;;3.05;;
25079;SDS011;13071;48.868;9.996;2022-08-01T02:13:38;3.88;;;2.88;;
25079;SDS011;13071;48.868;9.996;2022-08-01T02:16:06;2.80;;;2.58;;
25079;SDS011;13071;48.868;9.996;2022-08-01T02:18:37;3.35;;;3.05;;
25079;SDS011;13071;48.868;9.996;2022-08-01T02:21:05;4.97;;;2.80;;
25079;SDS011;13071;48.868;9.996;2022-08-01T02:23:36;3.08;;;2.40;;
25079;SDS011;13071;48.868;9.996;2022-08-01T02:26:07;7.10;;;2.92;;
25079;SDS011;13071;48.868;9.996;2022-08-01T02:28:36;2.75;;;2.33;;
25079;SDS011;13071;48.868;9.996;2022-08-01T02:31:08;2.97;;;2.65;;
25079;SDS011;13071;48.868;9.996;2022-08-01T02:33:41;3.20;;;2.40;;
25079;SDS011;13071;48.868;9.996;2022-08-01T02:36:11;3.60;;;2.85;;
25079;SDS011;13071;48.868;9.996;2022-08-01T02:38:41;3.03;;;2.83;;
25079;SDS011;13071;48.868;9.996;2022-08-01T02:41:09;4.72;;;2.35;;
25079;SDS011;13071;48.868;9.996;2022-08-01T02:43:40;2.75;;;2.47;;
25079;SDS011;13071;48.868;9.996;2022-08-01T02:46:13;3.75;;;2.65;;
25079;SDS011;13071;48.868;9.996;2022-08-01T02:48:45;2.67;;;2.47;;
25079;SDS011;13071;48.868;9.996;2022-08-01T02:51:16;2.92;;;2.70;;
25079;SDS011;13071;48.868;9.996;2022-08-01T02:53:46;2.70;;;2.47;;
25079;SDS011;13071;48.868;9.996;2022-08-01T02:56:14;3.38;;;2.67;;
25079;SDS011;13071;48.868;9.996;2022-08-01T02:58:43;3.15;;;2.55;;
25079;SDS011;13071;48.868;9.996;2022-08-01T03:01:12;2.63;;;2.42;;
25079;SDS011;13071;48.868;9.996;2022-08-01T03:03:41;3.75;;;2.60;;
25079;SDS011;13071;48.868;9.996;2022-08-01T03:06:09;3.15;;;2.85;;
25079;SDS011;13071;48.868;9.996;2022-08-01T03:08:37;5.47;;;2.60;;
25079;SDS011;13071;48.868;9.996;2022-08-01T03:11:05;3.55;;;2.85;;
25079;SDS011;13071;48.868;9.996;2022-08-01T03:13:34;3.63;;;2.58;;
25079;SDS011;13071;48.868;9.996;2022-08-01T03:16:01;3.20;;;2.70;;
25079;SDS011;13071;48.868;9.996;2022-08-01T03:18:30;4.20;;;2.35;;
25079;SDS011;13071;48.868;9.996;2022-08-01T03:20:57;3.53;;;2.47;;
25079;SDS011;13071;48.868;9.996;2022-08-01T03:23:27;3.10;;;2.58;;
25079;SDS011;13071;48.868;9.996;2022-08-01T03:25:56;2.80;;;2.50;;
25079;SDS011;13071;48.868;9.996;2022-08-01T03:28:23;2.83;;;2.60;;
25079;SDS011;13071;48.868;9.996;2022-08-01T03:30:51;3.42;;;2.40;;
25079;SDS011;13071;48.868;9.996;2022-08-01T03:33:19;2.42;;;2.30;;
25079;SDS011;13071;48.868;9.996;2022-08-01T03:35:47;3.55;;;2.50;;
25079;SDS011;13071;48.868;9.996;2022-08-01T03:38:17;3.15;;;2.40;;
25079;SDS011;13071;48.868;9.996;2022-08-01T03:40:49;3.58;;;2.50;;
25079;SDS011;13071;48.868;9.996;2022-08-01T03:43:20;2.95;;;2.40;;
25079;SDS011;13071;48.868;9.996;2022-08-01T03:45:53;2.35;;;2.15;;
25079;SDS011;13071;48.868;9.996;2022-08-01T03:48:28;4.35;;;2.75;;
25079;SDS011;13071;48.868;9.996;2022-08-01T03:50:59;4.40;;;2.78;;
25079;SDS011;13071;48.868;9.996;2022-08-01T03:53:28;2.80;;;2.60;;
25079;SDS011;13071;48.868;9.996;2022-08-01T03:55:58;3.30;;;2.55;;
25079;SDS011;13071;48.868;9.996;2022-08-01T03:58:26;3.72;;;2.42;;
25079;SDS011;13071;48.868;9.996;2022-08-01T04:00:54;4.22;;;2.60;;
25079;SDS011;13071;48.868;9.996;2022-08-01T04:03:21;2.97;;;2.42;;
25079;SDS011;13071;48.868;9.996;2022-08-01T04:05:48;3.03;;;2.50;;
25079;SDS011;13071;48.868;9.996;2022-08-01T04:08:15;4.80;;;2.72;;
25079;SDS011;13071;48.868;9.996;2022-08-01T04:10:42;4.60;;;2.67;;
25079;SDS011;13071;48.868;9.996;2022-08-01T04:13:10;2.63;;;2.42;;
25079;SDS011;13071;48.868;9.996;2022-08-01T04:15:37;3.53;;;2.45;;
25079;SDS011;13071;48.868;9.996;2022-08-01T04:18:04;4.88;;;2.67;;
25079;SDS011;13071;48.868;9.996;2022-08-01T04:20:31;3.05;;;2.47;;
25079;SDS011;13071;48.868;9.996;2022-08-01T04:22:58;3.05;;;2.38;;
25079;SDS011;13071;48.868;9.996;2022-08-01T04:25:26;3.28;;;2.70;;
25079;SDS011;13071;48.868;9.996;2022-08-01T04:27:55;3.03;;;2.35;;
25079;SDS011;13071;48.868;9.996;2022-08-01T04:30:25;4.03;;;2.50;;
25079;SDS011;13071;48.868;9.996;2022-08-01T04:32:55;4.38;;;2.55;;
25079;SDS011;13071;48.868;9.996;2022-08-01T04:35:25;2.28;;;2.08;;
25079;SDS011;13071;48.868;9.996;2022-08-01T04:37:54;5.28;;;2.58;;
25079;SDS011;13071;48.868;9.996;2022-08-01T04:40:22;3.45;;;2.45;;
25079;SDS011;13071;48.868;9.996;2022-08-01T04:42:51;3.97;;;2.40;;
25079;SDS011;13071;48.868;9.996;2022-08-01T04:45:18;2.45;;;2.25;;
25079;SDS011;13071;48.868;9.996;2022-08-01T04:47:46;2.60;;;2.40;;
25079;SDS011;13071;48.868;9.996;2022-08-01T04:50:13;2.38;;;2.17;;
25079;SDS011;13071;48.868;9.996;2022-08-01T04:52:40;4.38;;;2.53;;
25079;SDS011;13071;48.868;9.996;2022-08-01T04:55:07;2.35;;;2.15;;
25079;SDS011;13071;48.868;9.996;2022-08-01T04:57:36;2.92;;;2.63;;
25079;SDS011;13071;48.868;9.996;2022-08-01T05:00:05;6.05;;;2.65;;
25079;SDS011;13071;48.868;9.996;2022-08-01T05:02:33;2.95;;;2.50;;
25079;SDS011;13071;48.868;9.996;2022-08-01T05:05:01;2.38;;;2.17;;
25079;SDS011;13071;48.868;9.996;2022-08-01T05:07:28;3.53;;;2.28;;
25079;SDS011;13071;48.868;9.996;2022-08-01T05:09:54;2.65;;;2.40;;
25079;SDS011;13071;48.868;9.996;2022-08-01T05:12:21;3.60;;;2.28;;
25079;SDS011;13071;48.868;9.996;2022-08-01T05:14:48;3.40;;;2.40;;
25079;SDS011;13071;48.868;9.996;2022-08-01T05:17:14;2.47;;;2.13;;
25079;SDS011;13071;48.868;9.996;2022-08-01T05:19:41;2.35;;;2.15;;
25079;SDS011;13071;48.868;9.996;2022-08-01T05:22:10;2.60;;;2.40;;
25079;SDS011;13071;48.868;9.996;2022-08-01T05:24:37;2.45;;;2.25;;
25079;SDS011;13071;48.868;9.996;2022-08-01T05:27:05;2.15;;;2.05;;
25079;SDS011;13071;48.868;9.996;2022-08-01T05:29:33;3.90;;;2.50;;
25079;SDS011;13071;48.868;9.996;2022-08-01T05:32:00;5.38;;;2.78;;
25079;SDS011;13071;48.868;9.996;2022-08-01T05:34:28;2.88;;;2.25;;
25079;SDS011;13071;48.868;9.996;2022-08-01T05:36:54;4.15;;;2.50;;
25079;SDS011;13071;48.868;9.996;2022-08-01T05:39:22;3.95;;;2.90;;
25079;SDS011;13071;48.868;9.996;2022-08-01T05:41:49;4.90;;;2.42;;
25079;SDS011;13071;48.868;9.996;2022-08-01T05:44:15;3.15;;;2.63;;
25079;SDS011;13071;48.868;9.996;2022-08-01T05:46:42;2.78;;;2.58;;
25079;SDS011;13071;48.868;9.996;2022-08-01T05:49:09;2.50;;;2.30;;
25079;SDS011;13071;48.868;9.996;2022-08-01T05:51:36;3.20;;;2.50;;
25079;SDS011;13071;48.868;9.996;2022-08-01T05:54:02;3.97;;;2.47;;
25079;SDS011;13071;48.868;9.996;2022-08-01T05:56:30;3.45;;;2.47;;
25079;SDS011;13071;48.868;9.996;2022-08-01T05:58:57;3.97;;;2.70;;
25079;SDS011;13071;48.868;9.996;2022-08-01T06:01:23;3.33;;;2.42;;
25079;SDS011;13071;48.868;9.996;2022-08-01T06:03:50;2.78;;;2.25;;
25079;SDS011;13071;48.868;9.996;2022-08-01T06:06:19;3.38;;;2.60;;
25079;SDS011;13071;48.868;9.996;2022-08-01T06:08:45;4.50;;;2.78;;
25079;SDS011;13071;48.868;9.996;2022-08-01T06:11:12;2.85;;;2.35;;
25079;SDS011;13071;48.868;9.996;2022-08-01T06:13:40;3.05;;;2.63;;
25079;SDS011;13071;48.868;9.996;2022-08-01T06:16:07;3.92;;;2.50;;
25079;SDS011;13071;48.868;9.996;2022-08-01T06:18:34;3.03;;;2.63;;
25079;SDS011;13071;48.868;9.996;2022-08-01T06:21:00;3.10;;;2.72;;
25079;SDS011;13071;48.868;9.996;2022-08-01T06:23:27;2.80;;;2.60;;
25079;SDS011;13071;48.868;9.996;2022-08-01T06:25:53;2.72;;;2.30;;
25079;SDS011;13071;48.868;9.996;2022-08-01T06:28:20;4.15;;;2.75;;
25079;SDS011;13071;48.868;9.996;2022-08-01T06:30:48;2.90;;;2.67;;
25079;SDS011;13071;48.868;9.996;2022-08-01T06:33:15;5.18;;;2.78;;
25079;SDS011;13071;48.868;9.996;2022-08-01T06:35:42;2.67;;;2.25;;
25079;SDS011;13071;48.868;9.996;2022-08-01T06:38:08;3.60;;;2.47;;
25079;SDS011;13071;48.868;9.996;2022-08-01T06:40:35;4.65;;;2.40;;
25079;SDS011;13071;48.868;9.996;2022-08-01T06:43:03;4.22;;;2.60;;
25079;SDS011;13071;48.868;9.996;2022-08-01T06:45:29;3.38;;;2.42;;
25079;SDS011;13071;48.868;9.996;2022-08-01T06:47:57;2.80;;;2.60;;
25079;SDS011;13071;48.868;9.996;2022-08-01T06:50:24;4.20;;;2.75;;
25079;SDS011;13071;48.868;9.996;2022-08-01T06:52:51;3.70;;;2.70;;
25079;SDS011;13071;48.868;9.996;2022-08-01T06:55:17;2.80;;;2.53;;
25079;SDS011;13071;48.868;9.996;2022-08-01T06:57:45;2.70;;;2.50;;
25079;SDS011;13071;48.868;9.996;2022-08-01T07:00:12;3.30;;;2.08;;
25079;SDS011;13071;48.868;9.996;2022-08-01T07:02:41;3.35;;;2.33;;
25079;SDS011;13071;48.868;9.996;2022-08-01T07:05:09;3.38;;;2.47;;
25079;SDS011;13071;48.868;9.996;2022-08-01T07:07:36;2.53;;;2.33;;
25079;SDS011;13071;48.868;9.996;2022-08-01T07:10:03;3.20;;;2.35;;
25079;SDS011;13071;48.868;9.996;2022-08-01T07:12:30;3.05;;;2.28;;
25079;SDS011;13071;48.868;9.996;2022-08-01T07:14:58;2.60;;;2.40;;
25079;SDS011;13071;48.868;9.996;2022-08-01T07:17:24;3.45;;;2.45;;
25079;SDS011;13071;48.868;9.996;2022-08-01T07:19:51;3.55;;;2.47;;
25079;SDS011;13071;48.868;9.996;2022-08-01T07:22:20;2.45;;;2.05;;
25079;SDS011;13071;48.868;9.996;2022-08-01T07:24:47;3.30;;;2.33;;
25079;SDS011;13071;48.868;9.996;2022-08-01T07:27:14;2.83;;;2.53;;
25079;SDS011;13071;48.868;9.996;2022-08-01T07:29:40;3.08;;;2.78;;
25079;SDS011;13071;48.868;9.996;2022-08-01T07:32:07;2.40;;;2.20;;
25079;SDS011;13071;48.868;9.996;2022-08-01T07:34:34;4.32;;;2.33;;
25079;SDS011;13071;48.868;9.996;2022-08-01T07:37:00;2.35;;;2.15;;
25079;SDS011;13071;48.868;9.996;2022-08-01T07:39:28;4.10;;;2.70;;
25079;SDS011;13071;48.868;9.996;2022-08-01T07:41:55;2.50;;;2.20;;
25079;SDS011;13071;48.868;9.996;2022-08-01T07:44:22;2.42;;;2.22;;
25079;SDS011;13071;48.868;9.996;2022-08-01T07:46:49;3.13;;;2.47;;
25079;SDS011;13071;48.868;9.996;2022-08-01T07:49:16;3.40;;;2.38;;
25079;SDS011;13071;48.868;9.996;2022-08-01T07:51:42;2.97;;;2.67;;
25079;SDS011;13071;48.868;9.996;2022-08-01T07:54:09;3.10;;;2.38;;
25079;SDS011;13071;48.868;9.996;2022-08-01T07:56:37;3.28;;;2.38;;
25079;SDS011;13071;48.868;9.996;2022-08-01T07:59:04;3.30;;;2.33;;
25079;SDS011;13071;48.868;9.996;2022-08-01T08:01:30;2.35;;;2.08;;
25079;SDS011;13071;48.868;9.996;2022-08-01T08:03:57;2.55;;;2.33;;
25079;SDS011;13071;48.868;9.996;2022-08-01T08:06:24;3.20;;;2.10;;
25079;SDS011;13071;48.868;9.996;2022-08-01T08:08:51;2.92;;;2.40;;
25079;SDS011;13071;48.868;9.996;2022-08-01T08:11:18;2.20;;;2.10;;
25079;SDS011;13071;48.868;9.996;2022-08-01T08:13:46;3.53;;;2.47;;
25079;SDS011;13071;48.868;9.996;2022-08-01T08:16:13;2.70;;;2.50;;
25079;SDS011;13071;48.868;9.996;2022-08-01T08:18:40;3.88;;;2.50;;
25079;SDS011;13071;48.868;9.996;2022-08-01T08:21:06;2.30;;;2.20;;
25079;SDS011;13071;48.868;9.996;2022-08-01T08:23:33;2.90;;;2.70;;
25079;SDS011;13071;48.868;9.996;2022-08-01T08:26:17;2.88;;;2.00;;
25079;SDS011;13071;48.868;9.996;2022-08-01T08:28:43;2.38;;;2.17;;
25079;SDS011;13071;48.868;9.996;2022-08-01T08:31:12;3.28;;;2.42;;
25079;SDS011;13071;48.868;9.996;2022-08-01T08:33:39;2.40;;;2.15;;
25079;SDS011;13071;48.868;9.996;2022-08-01T08:36:05;3.53;;;2.20;;
25079;SDS011;13071;48.868;9.996;2022-08-01T08:38:32;1.98;;;1.75;;
25079;SDS011;13071;48.868;9.996;2022-08-01T08:40:59;2.15;;;1.80;;
25079;SDS011;13071;48.868;9.996;2022-08-01T08:43:25;2.20;;;2.00;;
25079;SDS011;13071;48.868;9.996;2022-08-01T08:45:52;1.83;;;1.73;;
25079;SDS011;13071;48.868;9.996;2022-08-01T08:48:21;1.95;;;1.40;;
25079;SDS011;13071;48.868;9.996;2022-08-01T08:50:48;2.22;;;1.42;;
25079;SDS011;13071;48.868;9.996;2022-08-01T08:53:16;8.65;;;1.58;;
25079;SDS011;13071;48.868;9.996;2022-08-01T08:55:44;1.63;;;1.52;;
25079;SDS011;13071;48.868;9.996;2022-08-01T08:58:12;1.77;;;1.67;;
25079;SDS011;13071;48.868;9.996;2022-08-01T09:00:41;3.33;;;1.52;;
25079;SDS011;13071;48.868;9.996;2022-08-01T09:03:08;2.40;;;1.60;;
25079;SDS011;13071;48.868;9.996;2022-08-01T09:05:36;1.70;;;1.60;;
25079;SDS011;13071;48.868;9.996;2022-08-01T09:08:05;1.95;;;1.77;;
25079;SDS011;13071;48.868;9.996;2022-08-01T09:10:32;1.50;;;1.40;;
25079;SDS011;13071;48.868;9.996;2022-08-01T09:13:06;1.77;;;1.67;;
25079;SDS011;13071;48.868;9.996;2022-08-01T09:15:39;1.63;;;1.60;;
25079;SDS011;13071;48.868;9.996;2022-08-01T09:18:08;4.70;;;2.08;;
25079;SDS011;13071;48.868;9.996;2022-08-01T09:20:53;2.33;;;1.52;;
25079;SDS011;13071;48.868;9.996;2022-08-01T09:23:34;2.15;;;1.50;;
25079;SDS011;13071;48.868;9.996;2022-08-01T09:26:04;2.50;;;1.52;;
25079;SDS011;13071;48.868;9.996;2022-08-01T09:28:30;1.63;;;1.52;;
25079;SDS011;13071;48.868;9.996;2022-08-01T09:30:57;2.90;;;1.83;;
25079;SDS011;13071;48.868;9.996;2022-08-01T09:33:24;3.03;;;1.70;;
25079;SDS011;13071;48.868;9.996;2022-08-01T09:35:55;1.80;;;1.70;;
25079;SDS011;13071;48.868;9.996;2022-08-01T09:38:22;2.22;;;1.85;;
25079;SDS011;13071;48.868;9.996;2022-08-01T09:40:52;2.15;;;1.50;;
25079;SDS011;13071;48.868;9.996;2022-08-01T09:43:20;1.90;;;1.80;;
25079;SDS011;13071;48.868;9.996;2022-08-01T09:45:49;1.95;;;1.85;;
25079;SDS011;13071;48.868;9.996;2022-08-01T09:48:15;1.70;;;1.60;;
25079;SDS011;13071;48.868;9.996;2022-08-01T09:50:43;3.22;;;1.73;;
25079;SDS011;13071;48.868;9.996;2022-08-01T09:53:13;1.70;;;1.60;;
25079;SDS011;13071;48.868;9.996;2022-08-01T09:55:41;2.28;;;1.38;;
25079;SDS011;13071;48.868;9.996;2022-08-01T09:58:08;3.53;;;1.60;;
25079;SDS011;13071;48.868;9.996;2022-08-01T10:00:36;1.70;;;1.60;;
25079;SDS011;13071;48.868;9.996;2022-08-01T10:03:18;1.85;;;1.33;;
25079;SDS011;13071;48.868;9.996;2022-08-01T10:05:46;1.10;;;1.10;;
25079;SDS011;13071;48.868;9.996;2022-08-01T10:08:14;1.48;;;1.38;;
25079;SDS011;13071;48.868;9.996;2022-08-01T10:10:41;2.40;;;1.42;;
25079;SDS011;13071;48.868;9.996;2022-08-01T10:13:09;1.67;;;1.58;;
25079;SDS011;13071;48.868;9.996;2022-08-01T10:15:37;1.88;;;1.63;;
25079;SDS011;13071;48.868;9.996;2022-08-01T10:18:05;2.75;;;1.67;;
25079;SDS011;13071;48.868;9.996;2022-08-01T10:20:33;1.80;;;1.70;;
25079;SDS011;13071;48.868;9.996;2022-08-01T10:23:00;3.10;;;1.50;;
25079;SDS011;13071;48.868;9.996;2022-08-01T10:25:32;1.48;;;1.38;;
25079;SDS011;13071;48.868;9.996;2022-08-01T10:28:02;1.48;;;1.38;;
25079;SDS011;13071;48.868;9.996;2022-08-01T10:30:36;1.88;;;1.77;;
25079;SDS011;13071;48.868;9.996;2022-08-01T10:33:03;1.48;;;1.38;;
25079;SDS011;13071;48.868;9.996;2022-08-01T10:35:30;1.58;;;1.50;;
25079;SDS011;13071;48.868;9.996;2022-08-01T10:37:58;1.55;;;1.42;;
25079;SDS011;13071;48.868;9.996;2022-08-01T10:40:24;2.97;;;1.85;;
25079;SDS011;13071;48.868;9.996;2022-08-01T10:42:53;4.45;;;1.45;;
25079;SDS011;13071;48.868;9.996;2022-08-01T10:45:21;1.92;;;1.80;;
25079;SDS011;13071;48.868;9.996;2022-08-01T10:47:51;1.80;;;1.70;;
25079;SDS011;13071;48.868;9.996;2022-08-01T10:50:27;3.92;;;1.85;;
25079;SDS011;13071;48.868;9.996;2022-08-01T10:53:09;1.80;;;1.70;;
25079;SDS011;13071;48.868;9.996;2022-08-01T10:55:47;2.65;;;1.60;;
25079;SDS011;13071;48.868;9.996;2022-08-01T10:58:20;1.90;;;1.73;;
25079;SDS011;13071;48.868;9.996;2022-08-01T11:00:48;1.73;;;1.63;;
25079;SDS011;13071;48.868;9.996;2022-08-01T11:03:35;2.90;;;1.52;;
25079;SDS011;13071;48.868;9.996;2022-08-01T11:06:02;2.08;;;1.90;;
25079;SDS011;13071;48.868;9.996;2022-08-01T11:08:29;1.80;;;1.67;;
25079;SDS011;13071;48.868;9.996;2022-08-01T11:11:00;3.22;;;1.75;;
25079;SDS011;13071;48.868;9.996;2022-08-01T11:16:32;2.88;;;2.00;;
25079;SDS011;13071;48.868;9.996;2022-08-01T11:19:00;3.42;;;1.83;;
25079;SDS011;13071;48.868;9.996;2022-08-01T11:27:23;2.40;;;2.25;;
25079;SDS011;13071;48.868;9.996;2022-08-01T11:32:55;1.90;;;1.80;;
25079;SDS011;13071;48.868;9.996;2022-08-01T11:35:22;2.08;;;1.80;;
25079;SDS011;13071;48.868;9.996;2022-08-01T11:37:52;1.90;;;1.80;;
25079;SDS011;13071;48.868;9.996;2022-08-01T11:40:21;2.53;;;2.30;;
25079;SDS011;13071;48.868;9.996;2022-08-01T11:42:49;3.03;;;2.30;;
25079;SDS011;13071;48.868;9.996;2022-08-01T11:45:47;3.72;;;2.42;;
25079;SDS011;13071;48.868;9.996;2022-08-01T11:48:18;2.08;;;1.90;;
25079;SDS011;13071;48.868;9.996;2022-08-01T11:50:45;2.10;;;2.00;;
25079;SDS011;13071;48.868;9.996;2022-08-01T11:53:11;3.70;;;2.50;;
25079;SDS011;13071;48.868;9.996;2022-08-01T11:55:43;2.15;;;2.00;;
25079;SDS011;13071;48.868;9.996;2022-08-01T11:58:12;5.38;;;2.28;;
25079;SDS011;13071;48.868;9.996;2022-08-01T12:00:39;2.45;;;2.22;;
25079;SDS011;13071;48.868;9.996;2022-08-01T12:03:07;2.90;;;2.20;;
25079;SDS011;13071;48.868;9.996;2022-08-01T12:05:35;2.35;;;2.25;;
25079;SDS011;13071;48.868;9.996;2022-08-01T12:08:03;2.58;;;2.38;;
25079;SDS011;13071;48.868;9.996;2022-08-01T12:10:32;2.90;;;2.60;;
25079;SDS011;13071;48.868;9.996;2022-08-01T12:13:02;3.22;;;2.20;;
25079;SDS011;13071;48.868;9.996;2022-08-01T12:15:32;2.83;;;2.28;;
25079;SDS011;13071;48.868;9.996;2022-08-01T12:18:00;2.10;;;2.00;;
25079;SDS011;13071;48.868;9.996;2022-08-01T12:20:31;2.90;;;2.38;;
25079;SDS011;13071;48.868;9.996;2022-08-01T12:22:59;2.70;;;2.50;;
25079;SDS011;13071;48.868;9.996;2022-08-01T12:25:27;2.53;;;2.30;;
25079;SDS011;13071;48.868;9.996;2022-08-01T12:27:54;5.18;;;2.47;;
25079;SDS011;13071;48.868;9.996;2022-08-01T12:30:21;3.08;;;2.20;;
25079;SDS011;13071;48.868;9.996;2022-08-01T12:32:50;2.58;;;2.38;;
25079;SDS011;13071;48.868;9.996;2022-08-01T12:35:19;2.45;;;2.25;;
25079;SDS011;13071;48.868;9.996;2022-08-01T12:37:50;2.72;;;2.30;;
25079;SDS011;13071;48.868;9.996;2022-08-01T12:40:19;1.75;;;1.65;;
25079;SDS011;13071;48.868;9.996;2022-08-01T12:42:48;2.30;;;2.10;;
25079;SDS011;13071;48.868;9.996;2022-08-01T12:45:17;3.22;;;1.80;;
25079;SDS011;13071;48.868;9.996;2022-08-01T12:47:45;1.90;;;1.80;;
25079;SDS011;13071;48.868;9.996;2022-08-01T12:50:13;1.90;;;1.80;;
25079;SDS011;13071;48.868;9.996;2022-08-01T12:52:41;2.00;;;1.85;;
25079;SDS011;13071;48.868;9.996;2022-08-01T12:55:10;1.85;;;1.75;;
25079;SDS011;13071;48.868;9.996;2022-08-01T12:57:39;1.73;;;1.42;;
25079;SDS011;13071;48.868;9.996;2022-08-01T13:00:11;2.10;;;1.48;;
25079;SDS011;13071;48.868;9.996;2022-08-01T13:02:41;2.10;;;1.88;;
25079;SDS011;13071;48.868;9.996;2022-08-01T13:05:09;2.28;;;2.10;;
25079;SDS011;13071;48.868;9.996;2022-08-01T13:07:39;1.88;;;1.73;;
25079;SDS011;13071;48.868;9.996;2022-08-01T13:10:11;1.90;;;1.67;;
25079;SDS011;13071;48.868;9.996;2022-08-01T13:12:39;2.10;;;1.73;;
25079;SDS011;13071;48.868;9.996;2022-08-01T13:15:20;1.42;;;1.42;;
25079;SDS011;13071;48.868;9.996;2022-08-01T13:17:53;2.05;;;1.58;;
25079;SDS011;13071;48.868;9.996;2022-08-01T13:20:27;1.60;;;1.40;;
25079;SDS011;13071;48.868;9.996;2022-08-01T13:23:09;1.67;;;1.30;;
25079;SDS011;13071;48.868;9.996;2022-08-01T13:25:51;4.57;;;1.33;;
25079;SDS011;13071;48.868;9.996;2022-08-01T13:28:21;1.52;;;1.42;;
25079;SDS011;13071;48.868;9.996;2022-08-01T13:30:56;1.48;;;1.38;;
25079;SDS011;13071;48.868;9.996;2022-08-01T13:33:24;3.70;;;1.30;;
25079;SDS011;13071;48.868;9.996;2022-08-01T13:35:52;1.25;;;1.20;;
25079;SDS011;13071;48.868;9.996;2022-08-01T13:38:20;1.52;;;1.42;;
25079;SDS011;13071;48.868;9.996;2022-08-01T13:41:09;1.60;;;1.50;;
25079;SDS011;13071;48.868;9.996;2022-08-01T13:43:36;1.80;;;1.35;;
25079;SDS011;13071;48.868;9.996;2022-08-01T13:46:02;1.65;;;1.15;;
25079;SDS011;13071;48.868;9.996;2022-08-01T13:48:30;2.45;;;1.50;;
25079;SDS011;13071;48.868;9.996;2022-08-01T13:50:57;1.55;;;1.48;;
25079;SDS011;13071;48.868;9.996;2022-08-01T13:53:24;1.60;;;1.50;;
25079;SDS011;13071;48.868;9.996;2022-08-01T13:55:51;0.90;;;0.90;;
25079;SDS011;13071;48.868;9.996;2022-08-01T13:58:19;1.30;;;1.20;;
25079;SDS011;13071;48.868;9.996;2022-08-01T14:00:45;1.17;;;1.17;;
25079;SDS011;13071;48.868;9.996;2022-08-01T14:03:12;1.52;;;1.42;;
25079;SDS011;13071;48.868;9.996;2022-08-01T14:05:39;1.38;;;1.33;;
25079;SDS011;13071;48.868;9.996;2022-08-01T14:08:06;1.60;;;1.40;;
25079;SDS011;13071;48.868;9.996;2022-08-01T14:10:32;1.27;;;1.20;;
25079;SDS011;13071;48.868;9.996;2022-08-01T14:12:59;2.70;;;1.30;;
25079;SDS011;13071;48.868;9.996;2022-08-01T14:15:27;2.78;;;1.40;;
25079;SDS011;13071;48.868;9.996;2022-08-01T14:17:53;1.50;;;1.40;;
25079;SDS011;13071;48.868;9.996;2022-08-01T14:20:20;3.67;;;1.40;;
25079;SDS011;13071;48.868;9.996;2022-08-01T14:22:47;1.67;;;1.42;;
25079;SDS011;13071;48.868;9.996;2022-08-01T14:25:14;1.40;;;1.20;;
25079;SDS011;13071;48.868;9.996;2022-08-01T14:27:43;1.30;;;1.20;;
25079;SDS011;13071;48.868;9.996;2022-08-01T14:30:10;1.92;;;1.45;;
25079;SDS011;13071;48.868;9.996;2022-08-01T14:32:39;1.30;;;1.25;;
25079;SDS011;13071;48.868;9.996;2022-08-01T14:35:06;1.35;;;1.27;;
25079;SDS011;13071;48.868;9.996;2022-08-01T14:37:33;3.75;;;1.30;;
25079;SDS011;13071;48.868;9.996;2022-08-01T14:40:00;2.00;;;1.35;;
25079;SDS011;13071;48.868;9.996;2022-08-01T14:42:29;4.18;;;1.40;;
25079;SDS011;13071;48.868;9.996;2022-08-01T14:44:56;1.52;;;1.42;;
25079;SDS011;13071;48.868;9.996;2022-08-01T14:47:22;1.45;;;1.35;;
25079;SDS011;13071;48.868;9.996;2022-08-01T14:49:50;1.10;;;1.10;;
25079;SDS011;13071;48.868;9.996;2022-08-01T14:52:17;1.75;;;1.38;;
25079;SDS011;13071;48.868;9.996;2022-08-01T14:54:44;1.20;;;1.20;;
25079;SDS011;13071;48.868;9.996;2022-08-01T14:57:11;1.25;;;1.25;;
25079;SDS011;13071;48.868;9.996;2022-08-01T14:59:37;1.30;;;1.15;;
25079;SDS011;13071;48.868;9.996;2022-08-01T15:02:04;1.52;;;1.25;;
25079;SDS011;13071;48.868;9.996;2022-08-01T15:04:31;1.10;;;1.10;;
25079;SDS011;13071;48.868;9.996;2022-08-01T15:06:59;3.05;;;1.00;;
25079;SDS011;13071;48.868;9.996;2022-08-01T15:09:25;1.67;;;1.05;;